sensor_id;sensor_type;location;lat;lon;timestamp;P1;durP1;ratioP1;P2;durP2;ratioP2
41233;SDS011;26968;42.686;23.352;2023-07-02T00:02:07;12.05;;;6.68;;
41233;SDS011;26968;42.686;23.352;2023-07-02T00:04:33;13.65;;;6.68;;
41233;SDS011;26968;42.686;23.352;2023-07-02T00:06:59;14.10;;;7.22;;
41233;SDS011;26968;42.686;23.352;2023-07-02T00:09:24;15.27;;;6.88;;
41233;SDS011;26968;42.686;23.352;2023-07-02T00:11:50;14.20;;;7.55;;
41233;SDS011;26968;42.686;23.352;2023-07-02T00:14:15;11.88;;;7.28;;
41233;SDS011;26968;42.686;23.352;2023-07-02T00:16:44;15.32;;;7.85;;
41233;SDS011;26968;42.686;23.352;2023-07-02T00:19:14;14.52;;;6.60;;
41233;SDS011;26968;42.686;23.352;2023-07-02T00:21:40;16.70;;;6.45;;
41233;SDS011;26968;42.686;23.352;2023-07-02T00:24:07;13.48;;;7.38;;
41233;SDS011;26968;42.686;23.352;2023-07-02T00:26:36;10.50;;;6.60;;
41233;SDS011;26968;42.686;23.352;2023-07-02T00:29:06;12.45;;;6.63;;
41233;SDS011;26968;42.686;23.352;2023-07-02T00:31:33;14.02;;;6.97;;
41233;SDS011;26968;42.686;23.352;2023-07-02T00:33:59;10.98;;;6.28;;
41233;SDS011;26968;42.686;23.352;2023-07-02T00:36:26;17.35;;;8.00;;
41233;SDS011;26968;42.686;23.352;2023-07-02T00:38:51;16.55;;;6.80;;
41233;SDS011;26968;42.686;23.352;2023-07-02T00:41:18;10.75;;;6.60;;
41233;SDS011;26968;42.686;23.352;2023-07-02T00:43:43;14.57;;;7.80;;
41233;SDS011;26968;42.686;23.352;2023-07-02T00:46:18;9.40;;;6.07;;
41233;SDS011;26968;42.686;23.352;2023-07-02T00:48:48;17.02;;;7.78;;
41233;SDS011;26968;42.686;23.352;2023-07-02T00:51:19;14.05;;;6.75;;
41233;SDS011;26968;42.686;23.352;2023-07-02T00:53:46;9.80;;;6.07;;
41233;SDS011;26968;42.686;23.352;2023-07-02T00:56:14;10.20;;;6.32;;
41233;SDS011;26968;42.686;23.352;2023-07-02T00:58:48;12.57;;;6.38;;
41233;SDS011;26968;42.686;23.352;2023-07-02T01:01:18;9.88;;;5.53;;
41233;SDS011;26968;42.686;23.352;2023-07-02T01:03:52;10.23;;;5.72;;
41233;SDS011;26968;42.686;23.352;2023-07-02T01:06:22;13.25;;;6.57;;
41233;SDS011;26968;42.686;23.352;2023-07-02T01:08:55;11.95;;;6.63;;
41233;SDS011;26968;42.686;23.352;2023-07-02T01:11:42;10.48;;;6.40;;
41233;SDS011;26968;42.686;23.352;2023-07-02T01:14:22;11.93;;;6.13;;
41233;SDS011;26968;42.686;23.352;2023-07-02T01:16:59;12.15;;;7.35;;
41233;SDS011;26968;42.686;23.352;2023-07-02T01:22:00;12.30;;;7.55;;
41233;SDS011;26968;42.686;23.352;2023-07-02T01:24:26;12.77;;;6.85;;
41233;SDS011;26968;42.686;23.352;2023-07-02T01:26:52;13.10;;;7.35;;
41233;SDS011;26968;42.686;23.352;2023-07-02T01:29:19;14.18;;;7.50;;
41233;SDS011;26968;42.686;23.352;2023-07-02T01:31:46;12.10;;;6.68;;
41233;SDS011;26968;42.686;23.352;2023-07-02T01:34:12;13.95;;;6.72;;
41233;SDS011;26968;42.686;23.352;2023-07-02T01:36:38;15.30;;;6.60;;
41233;SDS011;26968;42.686;23.352;2023-07-02T01:39:04;12.50;;;6.95;;
41233;SDS011;26968;42.686;23.352;2023-07-02T01:41:31;15.20;;;7.32;;
41233;SDS011;26968;42.686;23.352;2023-07-02T01:44:03;11.95;;;7.00;;
41233;SDS011;26968;42.686;23.352;2023-07-02T01:46:28;11.77;;;7.05;;
41233;SDS011;26968;42.686;23.352;2023-07-02T01:48:54;12.75;;;6.97;;
41233;SDS011;26968;42.686;23.352;2023-07-02T01:51:20;11.55;;;7.03;;
41233;SDS011;26968;42.686;23.352;2023-07-02T01:53:46;18.70;;;7.80;;
41233;SDS011;26968;42.686;23.352;2023-07-02T01:56:11;14.48;;;7.70;;
41233;SDS011;26968;42.686;23.352;2023-07-02T01:58:36;16.23;;;8.18;;
41233;SDS011;26968;42.686;23.352;2023-07-02T02:01:02;17.00;;;7.93;;
41233;SDS011;26968;42.686;23.352;2023-07-02T02:03:27;19.30;;;8.00;;
41233;SDS011;26968;42.686;23.352;2023-07-02T02:05:53;16.35;;;8.32;;
41233;SDS011;26968;42.686;23.352;2023-07-02T02:08:18;14.23;;;8.20;;
41233;SDS011;26968;42.686;23.352;2023-07-02T02:10:43;15.65;;;7.53;;
41233;SDS011;26968;42.686;23.352;2023-07-02T02:13:09;14.82;;;7.22;;
41233;SDS011;26968;42.686;23.352;2023-07-02T02:15:34;17.20;;;8.27;;
41233;SDS011;26968;42.686;23.352;2023-07-02T02:18:00;19.50;;;8.35;;
41233;SDS011;26968;42.686;23.352;2023-07-02T02:20:25;18.08;;;8.55;;
41233;SDS011;26968;42.686;23.352;2023-07-02T02:22:50;18.08;;;7.95;;
41233;SDS011;26968;42.686;23.352;2023-07-02T02:25:16;17.65;;;8.57;;
41233;SDS011;26968;42.686;23.352;2023-07-02T02:27:41;18.30;;;8.52;;
41233;SDS011;26968;42.686;23.352;2023-07-02T02:30:08;19.85;;;7.97;;
41233;SDS011;26968;42.686;23.352;2023-07-02T02:32:34;20.83;;;8.85;;
41233;SDS011;26968;42.686;23.352;2023-07-02T02:34:59;23.15;;;8.25;;
41233;SDS011;26968;42.686;23.352;2023-07-02T02:37:25;20.33;;;8.20;;
41233;SDS011;26968;42.686;23.352;2023-07-02T02:39:50;16.17;;;7.90;;
41233;SDS011;26968;42.686;23.352;2023-07-02T02:42:16;20.45;;;8.60;;
41233;SDS011;26968;42.686;23.352;2023-07-02T02:44:42;15.10;;;8.07;;
41233;SDS011;26968;42.686;23.352;2023-07-02T02:47:07;19.90;;;8.60;;
41233;SDS011;26968;42.686;23.352;2023-07-02T02:49:33;21.15;;;8.85;;
41233;SDS011;26968;42.686;23.352;2023-07-02T02:51:58;19.38;;;8.43;;
41233;SDS011;26968;42.686;23.352;2023-07-02T02:54:23;17.42;;;8.57;;
41233;SDS011;26968;42.686;23.352;2023-07-02T02:56:49;17.05;;;7.55;;
41233;SDS011;26968;42.686;23.352;2023-07-02T02:59:14;19.15;;;7.78;;
41233;SDS011;26968;42.686;23.352;2023-07-02T03:01:40;19.50;;;7.45;;
41233;SDS011;26968;42.686;23.352;2023-07-02T03:04:05;14.68;;;7.05;;
41233;SDS011;26968;42.686;23.352;2023-07-02T03:06:33;16.23;;;7.75;;
41233;SDS011;26968;42.686;23.352;2023-07-02T03:08:59;12.93;;;7.22;;
41233;SDS011;26968;42.686;23.352;2023-07-02T03:11:24;20.75;;;7.85;;
41233;SDS011;26968;42.686;23.352;2023-07-02T03:13:50;18.10;;;7.85;;
41233;SDS011;26968;42.686;23.352;2023-07-02T03:16:15;19.85;;;7.75;;
41233;SDS011;26968;42.686;23.352;2023-07-02T03:18:41;19.55;;;7.93;;
41233;SDS011;26968;42.686;23.352;2023-07-02T03:21:06;17.52;;;8.65;;
41233;SDS011;26968;42.686;23.352;2023-07-02T03:23:32;16.85;;;8.27;;
41233;SDS011;26968;42.686;23.352;2023-07-02T03:25:57;21.40;;;8.07;;
41233;SDS011;26968;42.686;23.352;2023-07-02T03:28:22;16.63;;;7.43;;
41233;SDS011;26968;42.686;23.352;2023-07-02T03:30:48;16.45;;;8.18;;
41233;SDS011;26968;42.686;23.352;2023-07-02T03:33:13;15.23;;;7.55;;
41233;SDS011;26968;42.686;23.352;2023-07-02T03:35:39;20.58;;;8.38;;
41233;SDS011;26968;42.686;23.352;2023-07-02T03:38:04;13.75;;;7.28;;
41233;SDS011;26968;42.686;23.352;2023-07-02T03:40:31;14.38;;;7.15;;
41233;SDS011;26968;42.686;23.352;2023-07-02T03:42:56;14.15;;;7.95;;
41233;SDS011;26968;42.686;23.352;2023-07-02T03:45:22;17.75;;;8.10;;
41233;SDS011;26968;42.686;23.352;2023-07-02T03:47:47;15.60;;;9.00;;
41233;SDS011;26968;42.686;23.352;2023-07-02T03:50:13;21.38;;;8.07;;
41233;SDS011;26968;42.686;23.352;2023-07-02T03:52:38;15.07;;;7.60;;
41233;SDS011;26968;42.686;23.352;2023-07-02T03:55:04;19.20;;;8.27;;
41233;SDS011;26968;42.686;23.352;2023-07-02T03:57:30;17.58;;;8.07;;
41233;SDS011;26968;42.686;23.352;2023-07-02T03:59:55;18.85;;;8.23;;
41233;SDS011;26968;42.686;23.352;2023-07-02T04:02:20;21.15;;;12.40;;
41233;SDS011;26968;42.686;23.352;2023-07-02T04:04:46;28.48;;;11.70;;
41233;SDS011;26968;42.686;23.352;2023-07-02T04:07:11;31.77;;;17.83;;
41233;SDS011;26968;42.686;23.352;2023-07-02T04:09:37;28.45;;;18.73;;
41233;SDS011;26968;42.686;23.352;2023-07-02T04:12:03;25.83;;;17.35;;
41233;SDS011;26968;42.686;23.352;2023-07-02T04:14:29;31.13;;;17.33;;
41233;SDS011;26968;42.686;23.352;2023-07-02T04:16:54;23.63;;;17.30;;
41233;SDS011;26968;42.686;23.352;2023-07-02T04:19:20;28.80;;;18.08;;
41233;SDS011;26968;42.686;23.352;2023-07-02T04:21:45;32.10;;;16.63;;
41233;SDS011;26968;42.686;23.352;2023-07-02T04:24:11;30.55;;;14.95;;
41233;SDS011;26968;42.686;23.352;2023-07-02T04:26:37;25.70;;;13.38;;
41233;SDS011;26968;42.686;23.352;2023-07-02T04:29:02;25.67;;;13.27;;
41233;SDS011;26968;42.686;23.352;2023-07-02T04:31:28;21.45;;;11.25;;
41233;SDS011;26968;42.686;23.352;2023-07-02T04:33:53;23.98;;;11.30;;
41233;SDS011;26968;42.686;23.352;2023-07-02T04:36:19;14.38;;;9.57;;
41233;SDS011;26968;42.686;23.352;2023-07-02T04:38:44;18.80;;;9.57;;
41233;SDS011;26968;42.686;23.352;2023-07-02T04:41:09;16.05;;;8.60;;
41233;SDS011;26968;42.686;23.352;2023-07-02T04:43:35;18.33;;;9.40;;
41233;SDS011;26968;42.686;23.352;2023-07-02T04:46:01;18.00;;;9.20;;
41233;SDS011;26968;42.686;23.352;2023-07-02T04:48:27;28.38;;;10.05;;
41233;SDS011;26968;42.686;23.352;2023-07-02T04:50:53;18.27;;;9.48;;
41233;SDS011;26968;42.686;23.352;2023-07-02T04:53:18;19.05;;;9.32;;
41233;SDS011;26968;42.686;23.352;2023-07-02T04:55:43;19.58;;;8.77;;
41233;SDS011;26968;42.686;23.352;2023-07-02T04:58:09;21.33;;;10.77;;
41233;SDS011;26968;42.686;23.352;2023-07-02T05:00:34;19.38;;;8.90;;
41233;SDS011;26968;42.686;23.352;2023-07-02T05:03:00;21.58;;;10.18;;
41233;SDS011;26968;42.686;23.352;2023-07-02T05:05:25;19.45;;;9.45;;
41233;SDS011;26968;42.686;23.352;2023-07-02T05:07:50;23.63;;;10.13;;
41233;SDS011;26968;42.686;23.352;2023-07-02T05:10:16;22.58;;;9.32;;
41233;SDS011;26968;42.686;23.352;2023-07-02T05:12:42;14.93;;;8.73;;
41233;SDS011;26968;42.686;23.352;2023-07-02T05:15:07;22.40;;;10.07;;
41233;SDS011;26968;42.686;23.352;2023-07-02T05:17:33;19.88;;;9.13;;
41233;SDS011;26968;42.686;23.352;2023-07-02T05:20:01;22.90;;;10.13;;
41233;SDS011;26968;42.686;23.352;2023-07-02T05:22:29;22.05;;;9.38;;
41233;SDS011;26968;42.686;23.352;2023-07-02T05:24:54;18.65;;;9.73;;
41233;SDS011;26968;42.686;23.352;2023-07-02T05:27:20;20.02;;;8.98;;
41233;SDS011;26968;42.686;23.352;2023-07-02T05:29:45;20.85;;;9.57;;
41233;SDS011;26968;42.686;23.352;2023-07-02T05:32:11;17.58;;;9.35;;
41233;SDS011;26968;42.686;23.352;2023-07-02T05:34:36;24.52;;;8.98;;
41233;SDS011;26968;42.686;23.352;2023-07-02T05:37:02;16.58;;;8.88;;
41233;SDS011;26968;42.686;23.352;2023-07-02T05:39:27;15.65;;;8.95;;
41233;SDS011;26968;42.686;23.352;2023-07-02T05:41:53;19.65;;;9.80;;
41233;SDS011;26968;42.686;23.352;2023-07-02T05:44:18;22.75;;;9.40;;
41233;SDS011;26968;42.686;23.352;2023-07-02T05:46:44;22.20;;;9.52;;
41233;SDS011;26968;42.686;23.352;2023-07-02T05:49:10;19.02;;;8.75;;
41233;SDS011;26968;42.686;23.352;2023-07-02T05:51:35;14.25;;;8.00;;
41233;SDS011;26968;42.686;23.352;2023-07-02T05:54:01;19.17;;;9.35;;
41233;SDS011;26968;42.686;23.352;2023-07-02T05:56:26;17.30;;;8.10;;
41233;SDS011;26968;42.686;23.352;2023-07-02T05:58:51;24.38;;;9.55;;
41233;SDS011;26968;42.686;23.352;2023-07-02T06:01:17;17.83;;;9.25;;
41233;SDS011;26968;42.686;23.352;2023-07-02T06:03:42;14.20;;;8.18;;
41233;SDS011;26968;42.686;23.352;2023-07-02T06:06:10;18.30;;;8.40;;
41233;SDS011;26968;42.686;23.352;2023-07-02T06:08:36;14.18;;;8.30;;
41233;SDS011;26968;42.686;23.352;2023-07-02T06:11:02;16.20;;;8.65;;
41233;SDS011;26968;42.686;23.352;2023-07-02T06:13:27;17.45;;;8.45;;
41233;SDS011;26968;42.686;23.352;2023-07-02T06:15:53;20.55;;;9.35;;
41233;SDS011;26968;42.686;23.352;2023-07-02T06:18:18;17.08;;;9.75;;
41233;SDS011;26968;42.686;23.352;2023-07-02T06:20:44;15.60;;;9.25;;
41233;SDS011;26968;42.686;23.352;2023-07-02T06:23:10;17.30;;;9.32;;
41233;SDS011;26968;42.686;23.352;2023-07-02T06:25:36;20.65;;;10.00;;
41233;SDS011;26968;42.686;23.352;2023-07-02T06:28:01;18.65;;;10.43;;
41233;SDS011;26968;42.686;23.352;2023-07-02T06:30:26;22.42;;;9.98;;
41233;SDS011;26968;42.686;23.352;2023-07-02T06:32:53;22.90;;;11.18;;
41233;SDS011;26968;42.686;23.352;2023-07-02T06:35:20;20.02;;;11.20;;
41233;SDS011;26968;42.686;23.352;2023-07-02T06:37:46;20.90;;;10.60;;
41233;SDS011;26968;42.686;23.352;2023-07-02T06:40:12;24.02;;;10.82;;
41233;SDS011;26968;42.686;23.352;2023-07-02T06:42:38;17.95;;;10.20;;
41233;SDS011;26968;42.686;23.352;2023-07-02T06:45:04;19.60;;;10.45;;
41233;SDS011;26968;42.686;23.352;2023-07-02T06:47:30;20.85;;;11.07;;
41233;SDS011;26968;42.686;23.352;2023-07-02T06:49:55;17.33;;;10.45;;
41233;SDS011;26968;42.686;23.352;2023-07-02T06:52:21;20.38;;;9.70;;
41233;SDS011;26968;42.686;23.352;2023-07-02T06:54:47;16.17;;;10.25;;
41233;SDS011;26968;42.686;23.352;2023-07-02T06:57:12;19.85;;;10.00;;
41233;SDS011;26968;42.686;23.352;2023-07-02T06:59:39;20.42;;;9.63;;
41233;SDS011;26968;42.686;23.352;2023-07-02T07:02:04;24.30;;;10.30;;
41233;SDS011;26968;42.686;23.352;2023-07-02T07:04:30;17.73;;;8.93;;
41233;SDS011;26968;42.686;23.352;2023-07-02T07:06:55;17.45;;;8.90;;
41233;SDS011;26968;42.686;23.352;2023-07-02T07:09:21;17.30;;;9.93;;
41233;SDS011;26968;42.686;23.352;2023-07-02T07:11:47;21.02;;;9.52;;
41233;SDS011;26968;42.686;23.352;2023-07-02T07:14:12;18.92;;;8.75;;
41233;SDS011;26968;42.686;23.352;2023-07-02T07:16:38;16.70;;;9.18;;
41233;SDS011;26968;42.686;23.352;2023-07-02T07:19:04;15.05;;;8.80;;
41233;SDS011;26968;42.686;23.352;2023-07-02T07:21:29;23.67;;;9.63;;
41233;SDS011;26968;42.686;23.352;2023-07-02T07:23:55;18.00;;;9.90;;
41233;SDS011;26968;42.686;23.352;2023-07-02T07:26:20;24.10;;;9.65;;
41233;SDS011;26968;42.686;23.352;2023-07-02T07:28:46;21.00;;;9.68;;
41233;SDS011;26968;42.686;23.352;2023-07-02T07:31:11;21.48;;;7.75;;
41233;SDS011;26968;42.686;23.352;2023-07-02T07:33:36;12.07;;;7.72;;
41233;SDS011;26968;42.686;23.352;2023-07-02T07:36:02;17.65;;;8.50;;
41233;SDS011;26968;42.686;23.352;2023-07-02T07:38:27;19.35;;;8.32;;
41233;SDS011;26968;42.686;23.352;2023-07-02T07:40:53;15.18;;;8.48;;
41233;SDS011;26968;42.686;23.352;2023-07-02T07:43:18;13.07;;;7.40;;
41233;SDS011;26968;42.686;23.352;2023-07-02T07:45:44;13.73;;;8.00;;
41233;SDS011;26968;42.686;23.352;2023-07-02T07:48:09;14.65;;;8.60;;
41233;SDS011;26968;42.686;23.352;2023-07-02T07:50:34;16.42;;;8.30;;
41233;SDS011;26968;42.686;23.352;2023-07-02T07:53:00;20.40;;;8.73;;
41233;SDS011;26968;42.686;23.352;2023-07-02T07:55:25;15.07;;;8.60;;
41233;SDS011;26968;42.686;23.352;2023-07-02T07:57:51;22.90;;;9.00;;
41233;SDS011;26968;42.686;23.352;2023-07-02T08:00:16;20.90;;;9.27;;
41233;SDS011;26968;42.686;23.352;2023-07-02T08:02:42;20.10;;;9.10;;
41233;SDS011;26968;42.686;23.352;2023-07-02T08:05:08;15.82;;;8.98;;
41233;SDS011;26968;42.686;23.352;2023-07-02T08:07:34;24.02;;;9.30;;
41233;SDS011;26968;42.686;23.352;2023-07-02T08:10:00;29.00;;;9.27;;
41233;SDS011;26968;42.686;23.352;2023-07-02T08:12:27;14.25;;;8.82;;
41233;SDS011;26968;42.686;23.352;2023-07-02T08:14:54;17.73;;;9.30;;
41233;SDS011;26968;42.686;23.352;2023-07-02T08:17:20;18.05;;;9.25;;
41233;SDS011;26968;42.686;23.352;2023-07-02T08:19:46;20.88;;;8.15;;
41233;SDS011;26968;42.686;23.352;2023-07-02T08:22:11;15.18;;;8.00;;
41233;SDS011;26968;42.686;23.352;2023-07-02T08:24:37;21.52;;;8.60;;
41233;SDS011;26968;42.686;23.352;2023-07-02T08:27:03;17.17;;;8.27;;
41233;SDS011;26968;42.686;23.352;2023-07-02T08:29:29;10.68;;;7.28;;
41233;SDS011;26968;42.686;23.352;2023-07-02T08:31:58;14.63;;;8.18;;
41233;SDS011;26968;42.686;23.352;2023-07-02T08:34:23;13.27;;;8.20;;
41233;SDS011;26968;42.686;23.352;2023-07-02T08:36:49;20.77;;;8.27;;
41233;SDS011;26968;42.686;23.352;2023-07-02T08:39:15;20.50;;;8.10;;
41233;SDS011;26968;42.686;23.352;2023-07-02T08:41:47;13.00;;;7.65;;
41233;SDS011;26968;42.686;23.352;2023-07-02T08:44:14;13.73;;;7.53;;
41233;SDS011;26968;42.686;23.352;2023-07-02T08:46:44;12.93;;;7.30;;
41233;SDS011;26968;42.686;23.352;2023-07-02T08:49:09;18.23;;;7.85;;
41233;SDS011;26968;42.686;23.352;2023-07-02T08:51:35;15.10;;;7.72;;
41233;SDS011;26968;42.686;23.352;2023-07-02T08:54:01;18.50;;;8.20;;
41233;SDS011;26968;42.686;23.352;2023-07-02T08:56:28;14.35;;;7.30;;
41233;SDS011;26968;42.686;23.352;2023-07-02T08:58:53;22.83;;;7.65;;
41233;SDS011;26968;42.686;23.352;2023-07-02T09:01:19;10.73;;;7.32;;
41233;SDS011;26968;42.686;23.352;2023-07-02T09:03:45;14.55;;;8.38;;
41233;SDS011;26968;42.686;23.352;2023-07-02T09:06:11;14.00;;;7.65;;
41233;SDS011;26968;42.686;23.352;2023-07-02T09:08:37;16.02;;;8.18;;
41233;SDS011;26968;42.686;23.352;2023-07-02T09:13:41;10.52;;;7.10;;
41233;SDS011;26968;42.686;23.352;2023-07-02T09:16:36;10.93;;;7.15;;
41233;SDS011;26968;42.686;23.352;2023-07-02T09:19:05;13.98;;;7.20;;
41233;SDS011;26968;42.686;23.352;2023-07-02T09:21:52;14.05;;;7.32;;
41233;SDS011;26968;42.686;23.352;2023-07-02T09:24:19;12.35;;;7.03;;
41233;SDS011;26968;42.686;23.352;2023-07-02T09:29:18;10.55;;;5.95;;
41233;SDS011;26968;42.686;23.352;2023-07-02T09:31:48;10.35;;;6.55;;
41233;SDS011;26968;42.686;23.352;2023-07-02T09:34:14;11.52;;;7.18;;
41233;SDS011;26968;42.686;23.352;2023-07-02T09:36:39;13.07;;;7.35;;
41233;SDS011;26968;42.686;23.352;2023-07-02T09:39:18;11.38;;;6.50;;
41233;SDS011;26968;42.686;23.352;2023-07-02T09:41:48;12.70;;;6.60;;
41233;SDS011;26968;42.686;23.352;2023-07-02T09:44:15;10.98;;;6.85;;
41233;SDS011;26968;42.686;23.352;2023-07-02T09:46:44;14.43;;;6.93;;
41233;SDS011;26968;42.686;23.352;2023-07-02T09:49:15;12.27;;;7.05;;
41233;SDS011;26968;42.686;23.352;2023-07-02T09:51:42;10.55;;;7.10;;
41233;SDS011;26968;42.686;23.352;2023-07-02T09:54:10;14.50;;;7.38;;
41233;SDS011;26968;42.686;23.352;2023-07-02T09:56:35;13.05;;;7.35;;
41233;SDS011;26968;42.686;23.352;2023-07-02T09:59:01;12.07;;;7.40;;
41233;SDS011;26968;42.686;23.352;2023-07-02T10:01:26;11.27;;;6.93;;
41233;SDS011;26968;42.686;23.352;2023-07-02T10:03:52;15.25;;;7.63;;
41233;SDS011;26968;42.686;23.352;2023-07-02T10:06:17;13.70;;;7.35;;
41233;SDS011;26968;42.686;23.352;2023-07-02T10:08:52;11.30;;;7.22;;
41233;SDS011;26968;42.686;23.352;2023-07-02T10:11:21;8.80;;;6.82;;
41233;SDS011;26968;42.686;23.352;2023-07-02T10:13:59;13.82;;;6.93;;
41233;SDS011;26968;42.686;23.352;2023-07-02T10:16:25;11.10;;;6.55;;
41233;SDS011;26968;42.686;23.352;2023-07-02T10:18:52;13.05;;;6.72;;
41233;SDS011;26968;42.686;23.352;2023-07-02T10:21:19;12.45;;;7.28;;
41233;SDS011;26968;42.686;23.352;2023-07-02T10:23:45;12.57;;;6.80;;
41233;SDS011;26968;42.686;23.352;2023-07-02T10:26:14;10.02;;;6.07;;
41233;SDS011;26968;42.686;23.352;2023-07-02T10:28:41;9.32;;;6.10;;
41233;SDS011;26968;42.686;23.352;2023-07-02T10:31:20;14.70;;;6.03;;
41233;SDS011;26968;42.686;23.352;2023-07-02T10:33:46;9.50;;;5.43;;
41233;SDS011;26968;42.686;23.352;2023-07-02T10:36:19;9.32;;;5.45;;
41233;SDS011;26968;42.686;23.352;2023-07-02T10:38:51;14.38;;;6.45;;
41233;SDS011;26968;42.686;23.352;2023-07-02T10:41:23;9.23;;;6.05;;
41233;SDS011;26968;42.686;23.352;2023-07-02T10:43:52;9.77;;;5.53;;
41233;SDS011;26968;42.686;23.352;2023-07-02T10:46:19;10.50;;;5.60;;
41233;SDS011;26968;42.686;23.352;2023-07-02T10:49:05;7.72;;;5.38;;
41233;SDS011;26968;42.686;23.352;2023-07-02T10:51:33;8.90;;;5.70;;
41233;SDS011;26968;42.686;23.352;2023-07-02T10:53:59;9.23;;;6.07;;
41233;SDS011;26968;42.686;23.352;2023-07-02T10:56:28;8.88;;;5.40;;
41233;SDS011;26968;42.686;23.352;2023-07-02T10:58:54;8.63;;;6.05;;
41233;SDS011;26968;42.686;23.352;2023-07-02T11:01:30;11.18;;;5.88;;
41233;SDS011;26968;42.686;23.352;2023-07-02T11:04:00;8.43;;;5.70;;
41233;SDS011;26968;42.686;23.352;2023-07-02T11:06:27;8.35;;;5.65;;
41233;SDS011;26968;42.686;23.352;2023-07-02T11:08:54;8.93;;;5.25;;
41233;SDS011;26968;42.686;23.352;2023-07-02T11:11:22;9.20;;;5.57;;
41233;SDS011;26968;42.686;23.352;2023-07-02T11:13:49;10.07;;;5.25;;
41233;SDS011;26968;42.686;23.352;2023-07-02T11:16:25;14.40;;;6.53;;
41233;SDS011;26968;42.686;23.352;2023-07-02T11:18:53;7.50;;;5.45;;
41233;SDS011;26968;42.686;23.352;2023-07-02T11:21:31;10.75;;;5.95;;
41233;SDS011;26968;42.686;23.352;2023-07-02T11:24:03;7.07;;;5.35;;
41233;SDS011;26968;42.686;23.352;2023-07-02T11:26:39;7.93;;;5.60;;
41233;SDS011;26968;42.686;23.352;2023-07-02T11:29:12;9.20;;;5.32;;
41233;SDS011;26968;42.686;23.352;2023-07-02T11:31:42;7.35;;;5.28;;
41233;SDS011;26968;42.686;23.352;2023-07-02T11:34:15;7.35;;;5.22;;
41233;SDS011;26968;42.686;23.352;2023-07-02T11:36:41;7.90;;;5.07;;
41233;SDS011;26968;42.686;23.352;2023-07-02T11:39:07;9.80;;;5.57;;
41233;SDS011;26968;42.686;23.352;2023-07-02T11:41:39;8.00;;;5.25;;
41233;SDS011;26968;42.686;23.352;2023-07-02T11:44:05;15.20;;;6.38;;
41233;SDS011;26968;42.686;23.352;2023-07-02T11:46:31;11.95;;;6.20;;
41233;SDS011;26968;42.686;23.352;2023-07-02T11:48:56;9.45;;;6.07;;
41233;SDS011;26968;42.686;23.352;2023-07-02T11:51:22;12.13;;;5.95;;
41233;SDS011;26968;42.686;23.352;2023-07-02T11:53:47;9.80;;;5.63;;
41233;SDS011;26968;42.686;23.352;2023-07-02T11:56:13;9.57;;;5.82;;
41233;SDS011;26968;42.686;23.352;2023-07-02T11:58:41;11.70;;;6.45;;
41233;SDS011;26968;42.686;23.352;2023-07-02T12:01:08;14.13;;;6.97;;
41233;SDS011;26968;42.686;23.352;2023-07-02T12:03:33;8.35;;;5.68;;
41233;SDS011;26968;42.686;23.352;2023-07-02T12:05:59;11.40;;;6.22;;
41233;SDS011;26968;42.686;23.352;2023-07-02T12:08:24;11.68;;;5.78;;
41233;SDS011;26968;42.686;23.352;2023-07-02T12:10:50;7.43;;;5.03;;
41233;SDS011;26968;42.686;23.352;2023-07-02T12:13:16;5.43;;;4.47;;
41233;SDS011;26968;42.686;23.352;2023-07-02T12:15:41;8.60;;;5.25;;
41233;SDS011;26968;42.686;23.352;2023-07-02T12:18:08;9.07;;;5.38;;
41233;SDS011;26968;42.686;23.352;2023-07-02T12:20:33;8.55;;;4.85;;
41233;SDS011;26968;42.686;23.352;2023-07-02T12:22:59;11.15;;;5.30;;
41233;SDS011;26968;42.686;23.352;2023-07-02T12:25:24;10.52;;;5.03;;
41233;SDS011;26968;42.686;23.352;2023-07-02T12:27:50;11.07;;;5.45;;
41233;SDS011;26968;42.686;23.352;2023-07-02T12:30:15;9.57;;;5.40;;
41233;SDS011;26968;42.686;23.352;2023-07-02T12:32:42;8.88;;;4.97;;
41233;SDS011;26968;42.686;23.352;2023-07-02T12:35:09;9.85;;;5.35;;
41233;SDS011;26968;42.686;23.352;2023-07-02T12:37:34;10.05;;;5.78;;
41233;SDS011;26968;42.686;23.352;2023-07-02T12:40:00;12.32;;;6.15;;
41233;SDS011;26968;42.686;23.352;2023-07-02T12:42:26;10.02;;;5.70;;
41233;SDS011;26968;42.686;23.352;2023-07-02T12:44:51;9.43;;;5.72;;
41233;SDS011;26968;42.686;23.352;2023-07-02T12:47:17;12.27;;;5.50;;
41233;SDS011;26968;42.686;23.352;2023-07-02T12:49:43;9.40;;;6.22;;
41233;SDS011;26968;42.686;23.352;2023-07-02T12:52:08;14.27;;;5.95;;
41233;SDS011;26968;42.686;23.352;2023-07-02T12:54:33;11.20;;;5.93;;
41233;SDS011;26968;42.686;23.352;2023-07-02T12:56:59;16.88;;;6.07;;
41233;SDS011;26968;42.686;23.352;2023-07-02T12:59:24;8.77;;;5.80;;
41233;SDS011;26968;42.686;23.352;2023-07-02T13:01:50;16.42;;;7.15;;
41233;SDS011;26968;42.686;23.352;2023-07-02T13:04:15;10.52;;;6.65;;
41233;SDS011;26968;42.686;23.352;2023-07-02T13:06:41;14.82;;;6.45;;
41233;SDS011;26968;42.686;23.352;2023-07-02T13:09:09;9.63;;;6.07;;
41233;SDS011;26968;42.686;23.352;2023-07-02T13:11:35;12.93;;;6.30;;
41233;SDS011;26968;42.686;23.352;2023-07-02T13:14:01;9.60;;;6.22;;
41233;SDS011;26968;42.686;23.352;2023-07-02T13:16:26;18.67;;;6.22;;
41233;SDS011;26968;42.686;23.352;2023-07-02T13:18:52;9.25;;;5.82;;
41233;SDS011;26968;42.686;23.352;2023-07-02T13:21:20;8.85;;;5.57;;
41233;SDS011;26968;42.686;23.352;2023-07-02T13:23:45;8.55;;;5.35;;
41233;SDS011;26968;42.686;23.352;2023-07-02T13:26:11;10.93;;;5.70;;
41233;SDS011;26968;42.686;23.352;2023-07-02T13:28:36;12.07;;;5.93;;
41233;SDS011;26968;42.686;23.352;2023-07-02T13:31:02;8.82;;;5.25;;
41233;SDS011;26968;42.686;23.352;2023-07-02T13:33:27;7.97;;;5.95;;
41233;SDS011;26968;42.686;23.352;2023-07-02T13:35:54;9.57;;;5.78;;
41233;SDS011;26968;42.686;23.352;2023-07-02T13:38:19;7.70;;;5.38;;
41233;SDS011;26968;42.686;23.352;2023-07-02T13:40:45;9.15;;;6.32;;
41233;SDS011;26968;42.686;23.352;2023-07-02T13:43:10;8.98;;;6.03;;
41233;SDS011;26968;42.686;23.352;2023-07-02T13:45:35;16.00;;;5.85;;
41233;SDS011;26968;42.686;23.352;2023-07-02T13:48:01;12.57;;;6.35;;
41233;SDS011;26968;42.686;23.352;2023-07-02T13:50:26;10.25;;;6.53;;
41233;SDS011;26968;42.686;23.352;2023-07-02T13:52:52;9.40;;;5.57;;
41233;SDS011;26968;42.686;23.352;2023-07-02T13:55:17;12.35;;;6.65;;
41233;SDS011;26968;42.686;23.352;2023-07-02T13:57:43;11.73;;;6.60;;
41233;SDS011;26968;42.686;23.352;2023-07-02T14:00:08;8.93;;;6.32;;
41233;SDS011;26968;42.686;23.352;2023-07-02T14:02:34;9.68;;;6.63;;
41233;SDS011;26968;42.686;23.352;2023-07-02T14:05:00;9.25;;;6.43;;
41233;SDS011;26968;42.686;23.352;2023-07-02T14:07:26;11.55;;;6.57;;
41233;SDS011;26968;42.686;23.352;2023-07-02T14:09:51;14.98;;;6.93;;
41233;SDS011;26968;42.686;23.352;2023-07-02T14:12:17;10.52;;;6.72;;
41233;SDS011;26968;42.686;23.352;2023-07-02T14:14:42;13.93;;;6.70;;
41233;SDS011;26968;42.686;23.352;2023-07-02T14:17:11;12.77;;;7.07;;
41233;SDS011;26968;42.686;23.352;2023-07-02T14:19:36;11.85;;;6.57;;
41233;SDS011;26968;42.686;23.352;2023-07-02T14:22:02;9.13;;;6.45;;
41233;SDS011;26968;42.686;23.352;2023-07-02T14:24:27;11.23;;;6.68;;
41233;SDS011;26968;42.686;23.352;2023-07-02T14:26:55;11.85;;;7.50;;
41233;SDS011;26968;42.686;23.352;2023-07-02T14:29:21;12.30;;;6.60;;